首页
METAR-TAF:

METAR-TAF

机场 :

麦迪逊, 威斯康辛州, 美国

纬度: 43-08-26N, 经度: 089-20-43W, 海拔: 262米

当前天气观测

该预报发布于1小时和7分钟前的05:03 UTC
风速17节,风向,有时为27节阵风
温度 26°C
湿度 65%
气压 1006 hPa
能見度: 16.1公里
少量云层高于4600英尺

METAR: KMSN 250503Z AUTO 19017G27KT 10SM FEW046 26/19 A2971 RMK AO2 PK WND 18027/0501 LTG DSNT E AND SE T02610189

时间: 01:10 (06:10 UTC)

预报

该预报发布于29分钟前的05:41 UTC
预报有效从25日的 06点(UTC)到 26日的 06点(UTC)
风速13节,风向南转西南,有时为21节阵风
能見度: 10公里
阴天层高于10000英尺
短暂存在
从 25日的 06点(UTC)到 25日的 09点(UTC)
能見度: 6.4公里
阴天层高于3500英尺, 积雨云.
雷暴, 雨
从 25日的 1200点(UTC)
风速12节,风向西转西南,有时为18节阵风
能見度: 10公里
多云层高于6000英尺
从 25日的 1300点(UTC)
风速11节,风向西转西南
能見度: 10公里
多云层高于2700英尺
从 25日的 1500点(UTC)
风速10节,风向西
能見度: 10公里
散云层高于3000英尺
从 26日的 0000点(UTC)
风速5节,风向西北
能見度: 10公里
少量云层高于4000英尺
散云层高于25000英尺

TAF: KMSN 250541Z 2506/2606 20013G21KT P6SM OVC100 WS020/23040KT TEMPO 2506/2509 4SM TSRA OVC035CB FM251200 24012G18KT P6SM BKN060 WS020/26045KT FM251300 25011KT P6SM BKN027 FM251500 28010KT P6SM SCT030 FM260000 31005KT P6SM FEW040 SCT250

超过4000个机场的气象观测和天气预报(METAR&TAF报告)。

可查询的气象台以黄色和红色小点在地图上表示。

将鼠标移到小点上方,可查看气象台名称。

然后点击查看天气观测和预报。

如需切换地图:点击带黑十字的绿色按钮放大地图;点击带横线的绿色按钮缩小地图;或者点击绿色箭头查看邻近地区的地图。


METAR-TAF: